Time;durP1;ratioP1;P1;durP2;ratioP2;P2;SDS_P1;SDS_P2;PMS_P1;PMS_P2;Temp;Humidity;BMP_temperature;BMP_pressure;BME280_temperature;BME280_humidity;BME280_pressure;Samples;Min_cycle;Max_cycle;Signal;HPM_P1;HPM_P2
2023/02/11 00:00:24;;;;;;;53.17;41.47;;;;;;;-5.18;100.00;98913.94;5071453;28;20300;-65
2023/02/11 00:02:51;;;;;;;61.23;42.80;;;;;;;-5.18;100.00;98916.53;5065219;28;21320;-67
2023/02/11 00:05:20;;;;;;;52.27;41.90;;;;;;;-5.16;100.00;98911.28;5073663;28;20215;-66
2023/02/11 00:07:48;;;;;;;54.20;40.70;;;;;;;-5.14;100.00;98914.69;5013659;28;25892;-66
2023/02/11 00:10:16;;;;;;;55.47;41.70;;;;;;;-5.14;100.00;98910.38;5071298;28;20237;-67
2023/02/11 00:12:43;;;;;;;67.93;48.33;;;;;;;-5.26;100.00;98911.56;5048888;28;20463;-64
2023/02/11 00:15:11;;;;;;;54.87;42.33;;;;;;;-5.25;100.00;98902.06;5076176;28;21129;-64
2023/02/11 00:17:39;;;;;;;53.33;40.70;;;;;;;-5.23;100.00;98913.22;5058881;28;20213;-63
2023/02/11 00:20:07;;;;;;;57.53;41.80;;;;;;;-5.26;100.00;98914.13;5067786;28;20285;-66
2023/02/11 00:22:36;;;;;;;56.63;40.97;;;;;;;-5.29;100.00;98905.63;5027496;28;20258;-64
2023/02/11 00:25:05;;;;;;;58.30;42.13;;;;;;;-5.30;100.00;98906.53;5063956;28;20234;-66
2023/02/11 00:27:32;;;;;;;51.90;39.67;;;;;;;-5.30;100.00;98902.19;5060364;28;20207;-64
2023/02/11 00:30:01;;;;;;;55.17;40.90;;;;;;;-5.37;100.00;98895.50;5063729;28;20574;-65
2023/02/11 00:32:29;;;;;;;58.00;41.90;;;;;;;-5.41;100.00;98888.72;5069514;28;20283;-64
2023/02/11 00:34:56;;;;;;;56.50;41.23;;;;;;;-5.33;100.00;98889.34;5066673;28;20475;-65
2023/02/11 00:37:24;;;;;;;55.23;39.90;;;;;;;-5.36;100.00;98894.63;5065036;28;20298;-63
2023/02/11 00:39:53;;;;;;;56.87;41.70;;;;;;;-5.38;100.00;98888.63;5023431;28;20406;-65
2023/02/11 00:42:21;;;;;;;52.30;39.93;;;;;;;-5.33;100.00;98891.94;5071498;28;20226;-65
2023/02/11 00:44:49;;;;;;;57.40;40.00;;;;;;;-5.33;100.00;98893.66;5055669;28;20390;-63
2023/02/11 00:47:16;;;;;;;57.70;44.27;;;;;;;-5.34;100.00;98895.41;5071320;28;20357;-65
2023/02/11 00:49:44;;;;;;;70.03;49.10;;;;;;;-5.33;100.00;98894.53;5074068;28;20704;-63
2023/02/11 00:52:12;;;;;;;51.20;39.73;;;;;;;-5.33;100.00;98896.25;5070917;28;20226;-65
2023/02/11 00:54:39;;;;;;;52.57;39.97;;;;;;;-5.31;100.00;98903.09;5019565;28;20214;-62
2023/02/11 00:57:08;;;;;;;55.50;41.60;;;;;;;-5.33;100.00;98904.00;5074671;28;20301;-64
2023/02/11 00:59:36;;;;;;;60.40;41.40;;;;;;;-5.34;100.00;98897.13;5053437;28;20301;-62
2023/02/11 01:02:04;;;;;;;59.33;42.20;;;;;;;-5.38;100.00;98896.41;5067048;28;20408;-64
2023/02/11 01:04:31;;;;;;;55.03;41.40;;;;;;;-5.40;100.00;98893.84;5076469;28;20206;-62
2023/02/11 01:06:59;;;;;;;53.57;41.17;;;;;;;-5.40;100.00;98896.41;5065714;28;20396;-64
2023/02/11 01:09:27;;;;;;;56.50;41.73;;;;;;;-5.37;100.00;98898.91;5024301;28;20214;-62
2023/02/11 01:11:55;;;;;;;60.73;41.43;;;;;;;-5.37;100.00;98888.59;5069090;28;20225;-62
2023/02/11 01:14:24;;;;;;;55.97;42.90;;;;;;;-5.36;100.00;98884.28;5074634;28;20581;-64
2023/02/11 01:16:51;;;;;;;58.53;40.00;;;;;;;-5.39;100.00;98879.19;5055556;28;20307;-65
2023/02/11 01:19:19;;;;;;;61.07;43.43;;;;;;;-5.42;100.00;98874.94;5068484;28;20252;-64
2023/02/11 01:21:47;;;;;;;61.93;41.40;;;;;;;-5.48;100.00;98877.69;5065557;28;20418;-63
2023/02/11 01:24:15;;;;;;;55.40;41.60;;;;;;;-5.46;100.00;98882.84;5071195;28;20293;-64
2023/02/11 01:26:42;;;;;;;52.17;40.93;;;;;;;-5.51;100.00;98875.19;5017818;28;20392;-62
2023/02/11 01:29:10;;;;;;;60.43;43.17;;;;;;;-5.48;100.00;98871.69;5074427;28;20550;-64
2023/02/11 01:31:39;;;;;;;56.33;42.80;;;;;;;-5.44;100.00;98861.22;5045146;28;20238;-62
2023/02/11 01:34:07;;;;;;;57.83;39.97;;;;;;;-5.38;100.00;98855.88;5067266;28;20218;-65
2023/02/11 01:36:34;;;;;;;61.10;42.37;;;;;;;-5.38;100.00;98862.81;5062129;28;20453;-63
2023/02/11 01:39:02;;;;;;;56.50;42.97;;;;;;;-5.40;100.00;98846.50;5072747;28;20207;-65
2023/02/11 01:41:30;;;;;;;58.20;41.60;;;;;;;-5.34;100.00;98841.16;5021403;28;20264;-62
2023/02/11 01:43:57;;;;;;;56.10;42.33;;;;;;;-5.34;100.00;98833.41;5067665;28;20363;-64
2023/02/11 01:46:33;;;;;;;62.63;41.73;;;;;;;-5.38;100.00;98840.38;5047357;28;20716;-61
2023/02/11 01:49:05;;;;;;;60.27;41.70;;;;;;;-5.40;100.00;98834.41;5068877;28;20237;-64
2023/02/11 01:51:37;;;;;;;61.23;43.73;;;;;;;-5.40;100.00;98831.81;5066736;28;20214;-61
2023/02/11 01:59:41;;;;;;;59.47;43.87;;;;;;;-5.30;100.00;98827.25;5072278;28;20452;-60
2023/02/11 02:02:11;;;;;;;62.70;44.63;;;;;;;-5.32;100.00;98820.41;5051849;28;20232;-61
2023/02/11 02:04:44;;;;;;;58.67;43.37;;;;;;;-5.30;100.00;98816.91;5076125;28;20208;-64
2023/02/11 02:07:16;;;;;;;54.43;42.20;;;;;;;-5.27;100.00;98816.00;5064969;28;20504;-64
2023/02/11 02:09:48;;;;;;;55.83;43.67;;;;;;;-5.33;100.00;98805.81;5066844;28;20758;-63
2023/02/11 02:12:15;;;;;;;58.33;43.07;;;;;;;-5.27;100.00;98822.00;5016237;28;20242;-63
2023/02/11 02:14:43;;;;;;;58.83;41.53;;;;;;;-5.31;100.00;98825.56;5065572;28;20450;-63
2023/02/11 02:17:17;;;;;;;61.60;42.23;;;;;;;-5.32;100.00;98833.34;5044663;28;20714;-64
2023/02/11 02:20:13;;;;;;;58.37;42.40;;;;;;;-5.39;100.00;98823.19;5066821;28;20198;-64
2023/02/11 02:23:07;;;;;;;57.40;43.83;;;;;;;-5.40;100.00;98826.66;5061559;28;20328;-62
2023/02/11 02:26:00;;;;;;;59.93;42.63;;;;;;;-5.47;100.00;98825.16;5072480;28;20213;-64
2023/02/11 02:28:39;;;;;;;57.10;41.97;;;;;;;-5.44;100.00;98832.81;5066924;28;20296;-63
2023/02/11 02:31:24;;;;;;;52.80;40.33;;;;;;;-5.43;100.00;98826.75;5065252;28;20573;-63
2023/02/11 02:33:56;;;;;;;59.40;41.53;;;;;;;-5.47;100.00;98832.06;5044859;28;20236;-62
2023/02/11 02:36:29;;;;;;;54.20;41.23;;;;;;;-5.44;100.00;98827.63;5062075;28;20431;-64
2023/02/11 02:39:01;;;;;;;55.77;43.20;;;;;;;-5.43;100.00;98825.91;5068713;28;20232;-62
2023/02/11 02:41:31;;;;;;;52.83;41.53;;;;;;;-5.41;100.00;98829.31;5069294;28;20305;-63
2023/02/11 02:43:59;;;;;;;55.93;40.83;;;;;;;-5.42;100.00;98809.53;5016364;28;20590;-61
2023/02/11 02:46:28;;;;;;;58.23;41.27;;;;;;;-5.34;100.00;98822.22;5066147;28;20643;-62
2023/02/11 02:48:57;;;;;;;54.43;41.07;;;;;;;-5.35;100.00;98813.63;5046201;28;20557;-62
2023/02/11 02:51:34;;;;;;;60.20;44.13;;;;;;;-5.30;100.00;98809.16;5066309;28;20221;-64
2023/02/11 02:54:19;;;;;;;59.33;44.13;;;;;;;-5.27;100.00;98803.06;5067357;28;20373;-62
2023/02/11 02:56:52;;;;;;;60.83;42.50;;;;;;;-5.21;100.00;98796.88;5067858;28;20451;-64
2023/02/11 02:59:27;;;;;;;55.13;41.53;;;;;;;-5.20;100.00;98789.06;5018810;28;20451;-62
2023/02/11 03:02:04;;;;;;;55.33;42.53;;;;;;;-5.21;100.00;98791.69;5059570;28;20243;-61
2023/02/11 03:04:37;;;;;;;54.47;40.57;;;;;;;-5.21;100.00;98784.81;5054070;28;20214;-61
2023/02/11 03:07:12;;;;;;;53.37;41.73;;;;;;;-5.22;100.00;98798.63;5055307;28;20208;-62
2023/02/11 03:09:42;;;;;;;54.07;42.93;;;;;;;-5.23;100.00;98787.41;5065858;28;20213;-62
2023/02/11 03:12:12;;;;;;;57.80;41.33;;;;;;;-5.26;100.00;98777.16;5063816;28;20836;-62
2023/02/11 03:14:40;;;;;;;57.47;42.53;;;;;;;-5.28;100.00;98771.19;5017925;28;20226;-62
2023/02/11 03:17:08;;;;;;;52.20;41.40;;;;;;;-5.20;100.00;98790.81;5068531;28;20388;-64
2023/02/11 03:19:38;;;;;;;54.80;40.97;;;;;;;-5.16;100.00;98789.81;5066344;28;20206;-62
2023/02/11 03:22:10;;;;;;;62.87;42.33;;;;;;;-5.14;100.00;98794.06;5054883;28;20483;-63
2023/02/11 03:24:39;;;;;;;54.73;42.47;;;;;;;-5.13;100.00;98792.31;5064813;28;20459;-62
2023/02/11 03:27:13;;;;;;;57.30;40.50;;;;;;;-5.12;100.00;98789.69;5064564;28;20206;-62
2023/02/11 03:29:44;;;;;;;48.63;39.30;;;;;;;-5.09;100.00;98794.75;5046518;28;20567;-62
2023/02/11 03:32:15;;;;;;;58.73;42.07;;;;;;;-5.12;100.00;98801.75;5041728;28;21267;-65
2023/02/11 03:34:47;;;;;;;50.70;39.70;;;;;;;-5.11;100.00;98793.13;5063250;28;20894;-63
2023/02/11 03:37:18;;;;;;;53.97;41.23;;;;;;;-5.08;100.00;98800.78;5045421;28;20840;-64
2023/02/11 03:39:50;;;;;;;55.10;40.03;;;;;;;-5.11;100.00;98800.88;5065802;28;20655;-62
2023/02/11 03:42:19;;;;;;;55.57;40.30;;;;;;;-5.07;100.00;98796.47;5067848;28;20309;-63
2023/02/11 03:44:52;;;;;;;51.47;38.00;;;;;;;-5.05;100.00;98799.84;5061824;28;20299;-62
2023/02/11 03:47:23;;;;;;;50.53;38.33;;;;;;;-5.12;100.00;98778.50;5023215;28;20970;-64
2023/02/11 03:49:53;;;;;;;52.93;38.33;;;;;;;-5.00;100.00;98790.19;5061021;28;20206;-62
2023/02/11 03:52:22;;;;;;;50.63;39.73;;;;;;;-4.97;100.00;98780.63;5044967;28;20233;-64
2023/02/11 03:54:52;;;;;;;52.03;38.10;;;;;;;-4.95;100.00;98780.56;5067643;28;20217;-62
2023/02/11 03:57:20;;;;;;;51.87;38.43;;;;;;;-4.98;100.00;98788.41;5067085;28;20203;-64
2023/02/11 03:59:53;;;;;;;59.63;40.23;;;;;;;-4.98;100.00;98791.88;5063413;28;20197;-62
2023/02/11 04:02:22;;;;;;;53.90;40.37;;;;;;;-4.96;100.00;98779.72;5024988;28;20956;-64
2023/02/11 04:04:50;;;;;;;57.83;40.23;;;;;;;-5.01;100.00;98763.53;5069964;28;20240;-62
2023/02/11 04:07:19;;;;;;;48.73;38.20;;;;;;;-4.94;100.00;98771.91;5047206;28;20573;-65
2023/02/11 04:09:48;;;;;;;51.90;39.77;;;;;;;-4.90;100.00;98767.50;5059224;28;20479;-61
2023/02/11 04:12:15;;;;;;;52.53;38.43;;;;;;;-4.87;100.00;98768.28;5069205;28;20604;-63
2023/02/11 04:14:43;;;;;;;55.87;41.27;;;;;;;-4.86;100.00;98761.34;5065872;28;20936;-62
2023/02/11 04:17:11;;;;;;;54.47;37.77;;;;;;;-4.84;100.00;98765.59;5021241;28;21042;-64
2023/02/11 04:19:39;;;;;;;48.77;38.57;;;;;;;-4.82;100.00;98757.75;5070026;28;20519;-62
2023/02/11 04:22:07;;;;;;;53.77;40.20;;;;;;;-4.81;100.00;98754.28;5042024;28;20742;-62
2023/02/11 04:24:36;;;;;;;52.93;40.53;;;;;;;-4.72;100.00;98748.84;5056176;28;20396;-62
2023/02/11 04:27:04;;;;;;;52.60;38.20;;;;;;;-4.72;100.00;98759.19;5067718;28;20206;-62
2023/02/11 04:29:32;;;;;;;50.10;36.93;;;;;;;-4.72;100.00;98761.78;5074692;28;20202;-63
2023/02/11 04:31:59;;;;;;;55.03;39.03;;;;;;;-4.74;100.00;98760.13;5018247;28;21701;-64
2023/02/11 04:34:27;;;;;;;53.73;38.27;;;;;;;-4.78;100.00;98756.75;5067734;28;20895;-60
2023/02/11 04:36:55;;;;;;;58.20;41.67;;;;;;;-4.81;100.00;98754.28;5048477;28;20207;-64
2023/02/11 04:39:23;;;;;;;53.87;39.90;;;;;;;-4.80;100.00;98743.91;5058780;28;20209;-64
2023/02/11 04:41:52;;;;;;;48.63;39.10;;;;;;;-4.80;100.00;98718.03;5064948;28;20582;-63
2023/02/11 04:44:19;;;;;;;59.40;38.10;;;;;;;-4.75;100.00;98740.31;5070331;28;20294;-65
2023/02/11 04:46:47;;;;;;;56.63;40.63;;;;;;;-4.72;100.00;98735.91;5062044;28;20504;-61
2023/02/11 04:49:16;;;;;;;52.07;38.37;;;;;;;-4.71;100.00;98741.91;5018666;28;20229;-63
2023/02/11 04:51:44;;;;;;;54.80;38.60;;;;;;;-4.80;100.00;98733.56;5049690;28;20325;-60
2023/02/11 04:54:15;;;;;;;56.27;39.93;;;;;;;-4.85;100.00;98734.59;5072587;28;20309;-65
2023/02/11 04:56:44;;;;;;;56.50;39.60;;;;;;;-4.89;100.00;98733.00;5047978;28;20220;-62
2023/02/11 04:59:13;;;;;;;50.77;40.30;;;;;;;-4.91;100.00;98737.38;5060996;28;20198;-64
2023/02/11 05:01:40;;;;;;;53.50;40.07;;;;;;;-4.89;100.00;98743.34;5062341;28;20248;-62
2023/02/11 05:04:08;;;;;;;62.00;42.13;;;;;;;-4.88;100.00;98739.84;5025778;28;20365;-65
2023/02/11 05:06:38;;;;;;;47.80;39.27;;;;;;;-4.84;100.00;98750.06;5063404;28;20475;-62
2023/02/11 05:09:05;;;;;;;52.70;38.80;;;;;;;-4.78;100.00;98751.59;5067500;28;20590;-65
2023/02/11 05:11:33;;;;;;;58.03;40.20;;;;;;;-4.71;100.00;98753.13;5052110;28;20344;-63
2023/02/11 05:14:01;;;;;;;55.30;40.50;;;;;;;-4.70;100.00;98754.81;5065031;28;20490;-67
2023/02/11 05:16:30;;;;;;;54.13;39.97;;;;;;;-4.66;100.00;98751.22;5072568;28;20318;-64
2023/02/11 05:18:57;;;;;;;53.30;40.00;;;;;;;-4.62;100.00;98756.28;5069505;28;20210;-64
2023/02/11 05:21:25;;;;;;;51.00;39.13;;;;;;;-4.62;100.00;98746.78;5023677;28;20241;-64
2023/02/11 05:23:53;;;;;;;53.07;39.60;;;;;;;-4.61;100.00;98745.88;5068135;28;20318;-66
2023/02/11 05:26:20;;;;;;;55.47;39.20;;;;;;;-4.61;100.00;98725.19;5072106;28;20301;-65
2023/02/11 05:28:48;;;;;;;52.17;39.77;;;;;;;-4.56;100.00;98720.69;5054928;28;20431;-65
2023/02/11 05:31:16;;;;;;;56.07;38.20;;;;;;;-4.60;100.00;98707.94;5067053;28;20222;-66
2023/02/11 05:33:45;;;;;;;51.87;38.43;;;;;;;-4.68;100.00;98698.69;5066404;28;20200;-63
2023/02/11 05:36:13;;;;;;;49.83;39.07;;;;;;;-4.65;100.00;98714.09;5022979;28;20677;-66
2023/02/11 05:38:42;;;;;;;48.33;37.07;;;;;;;-4.65;100.00;98718.41;5067190;28;20224;-64
2023/02/11 05:41:10;;;;;;;59.43;41.50;;;;;;;-4.66;100.00;98708.97;5065568;28;20219;-66
2023/02/11 05:43:38;;;;;;;51.00;39.10;;;;;;;-4.59;100.00;98714.78;5049353;28;20212;-64
2023/02/11 05:46:06;;;;;;;51.60;38.07;;;;;;;-4.60;100.00;98702.75;5062970;28;20351;-65
2023/02/11 05:48:34;;;;;;;49.80;38.03;;;;;;;-4.57;100.00;98702.66;5068249;28;20198;-63
2023/02/11 05:51:04;;;;;;;48.27;39.03;;;;;;;-4.50;100.00;98696.38;5025818;28;21517;-64
2023/02/11 05:53:31;;;;;;;50.23;38.00;;;;;;;-4.46;100.00;98705.72;5068860;28;20617;-63
2023/02/11 05:55:59;;;;;;;54.17;38.50;;;;;;;-4.47;100.00;98704.03;5066015;28;20687;-65
2023/02/11 05:58:27;;;;;;;47.23;36.97;;;;;;;-4.41;100.00;98711.56;5054537;28;20226;-62
2023/02/11 06:00:54;;;;;;;53.70;39.00;;;;;;;-4.44;100.00;98705.69;5061593;28;20683;-64
2023/02/11 06:03:22;;;;;;;50.90;37.67;;;;;;;-4.42;100.00;98691.78;5068819;28;20454;-66
2023/02/11 06:05:50;;;;;;;49.63;38.50;;;;;;;-4.39;100.00;98698.59;5056291;28;20431;-66
2023/02/11 06:08:19;;;;;;;52.50;38.63;;;;;;;-4.38;100.00;98688.19;5023361;28;20720;-62
2023/02/11 06:10:47;;;;;;;49.10;37.40;;;;;;;-4.36;100.00;98691.59;5047837;28;20206;-62
2023/02/11 06:13:17;;;;;;;49.23;36.00;;;;;;;-4.39;100.00;98696.84;5060742;28;20213;-65
2023/02/11 06:15:45;;;;;;;53.40;39.00;;;;;;;-4.37;100.00;98705.41;5021912;28;20775;-66
2023/02/11 06:18:12;;;;;;;44.97;36.47;;;;;;;-4.36;100.00;98707.13;5062053;28;20194;-66
2023/02/11 06:20:40;;;;;;;52.07;38.00;;;;;;;-4.32;100.00;98700.06;5065980;28;20439;-64
2023/02/11 06:23:08;;;;;;;46.03;36.13;;;;;;;-4.34;100.00;98701.03;5007715;28;20425;-65
2023/02/11 06:25:37;;;;;;;48.40;36.03;;;;;;;-4.24;100.00;98692.06;5047410;28;20240;-63
2023/02/11 06:28:04;;;;;;;52.40;38.00;;;;;;;-4.27;100.00;98687.81;5062457;28;20588;-63
2023/02/11 06:30:32;;;;;;;46.83;35.43;;;;;;;-4.18;100.00;98696.16;5022430;28;20249;-63
2023/02/11 06:33:00;;;;;;;50.90;37.87;;;;;;;-4.17;100.00;98703.88;5060499;28;20309;-61
2023/02/11 06:35:27;;;;;;;51.37;36.10;;;;;;;-4.18;100.00;98699.59;5066325;28;20397;-64
2023/02/11 06:37:55;;;;;;;46.93;36.13;;;;;;;-4.16;100.00;98712.50;5014628;28;20202;-63
2023/02/11 06:40:23;;;;;;;49.80;36.93;;;;;;;-4.15;100.00;98698.66;5059469;28;20593;-65
2023/02/11 06:42:52;;;;;;;48.33;36.30;;;;;;;-4.17;100.00;98709.06;5046001;28;20592;-63
2023/02/11 06:45:20;;;;;;;44.03;35.47;;;;;;;-4.05;100.00;98714.69;5043399;28;20523;-65
2023/02/11 06:47:48;;;;;;;44.77;35.27;;;;;;;-4.09;100.00;98703.63;5060863;28;20577;-65
2023/02/11 06:50:15;;;;;;;46.57;36.13;;;;;;;-4.12;100.00;98691.59;5067315;28;20198;-66
2023/02/11 06:52:43;;;;;;;48.73;35.43;;;;;;;-4.17;100.00;98678.00;5049543;28;20224;-64
2023/02/11 06:55:11;;;;;;;42.57;35.43;;;;;;;-4.07;100.00;98684.50;5047275;28;20498;-66
2023/02/11 06:57:39;;;;;;;51.67;37.33;;;;;;;-3.99;100.00;98685.97;5069583;28;20471;-62
2023/02/11 07:00:09;;;;;;;46.80;35.87;;;;;;;-3.98;100.00;98687.66;5064286;28;20225;-65
2023/02/11 07:02:37;;;;;;;47.27;34.73;;;;;;;-3.94;100.00;98690.09;5052501;28;20443;-60
2023/02/11 07:05:06;;;;;;;48.07;34.27;;;;;;;-3.97;100.00;98685.03;5067528;28;20217;-65
2023/02/11 07:07:34;;;;;;;46.37;35.43;;;;;;;-3.99;100.00;98685.97;5058214;28;20672;-65
2023/02/11 07:10:02;;;;;;;45.03;34.67;;;;;;;-3.98;100.00;98692.84;5016679;28;20468;-64
2023/02/11 07:12:30;;;;;;;48.57;33.67;;;;;;;-3.91;100.00;98683.97;5065689;28;20673;-64
2023/02/11 07:14:58;;;;;;;44.63;35.73;;;;;;;-3.91;100.00;98676.22;5063859;28;20201;-64
2023/02/11 07:17:27;;;;;;;46.03;34.70;;;;;;;-3.84;100.00;98695.81;5049954;28;20226;-65
2023/02/11 07:19:54;;;;;;;45.70;35.67;;;;;;;-3.78;100.00;98699.94;5062190;28;20199;-62
2023/02/11 07:22:22;;;;;;;45.27;36.47;;;;;;;-3.63;100.00;98690.72;5066692;28;20226;-65
2023/02/11 07:24:50;;;;;;;42.77;34.30;;;;;;;-3.57;100.00;98700.88;5027346;28;20201;-61
2023/02/11 07:27:17;;;;;;;45.00;33.83;;;;;;;-3.50;100.00;98699.72;5070528;28;20214;-65
2023/02/11 07:29:45;;;;;;;51.70;37.90;;;;;;;-3.54;100.00;98692.97;5056542;28;20444;-62
2023/02/11 07:32:13;;;;;;;49.22;37.75;;;;;;;-3.43;100.00;98707.25;5039626;28;20756;-64
2023/02/11 07:34:42;;;;;;;48.57;35.93;;;;;;;-3.47;100.00;98708.28;5067127;28;20316;-61
2023/02/11 07:37:10;;;;;;;41.37;34.77;;;;;;;-3.45;100.00;98707.31;5050884;28;20440;-64
2023/02/11 07:39:38;;;;;;;41.20;33.57;;;;;;;-3.46;100.00;98715.16;4996331;28;20217;-62
2023/02/11 07:42:06;;;;;;;44.80;33.53;;;;;;;-3.47;100.00;98709.13;5063333;28;20418;-64
2023/02/11 07:44:35;;;;;;;42.23;33.93;;;;;;;-3.41;100.00;98715.81;5066742;28;20241;-64
2023/02/11 07:47:03;;;;;;;39.70;32.77;;;;;;;-3.37;100.00;98712.22;5062470;28;20477;-63
2023/02/11 07:49:31;;;;;;;43.47;34.83;;;;;;;-3.36;100.00;98719.09;5053309;28;20522;-63
2023/02/11 07:52:00;;;;;;;41.67;33.30;;;;;;;-3.22;100.00;98719.41;5052421;28;20300;-65
2023/02/11 07:54:28;;;;;;;43.57;34.63;;;;;;;-3.17;100.00;98692.47;5070650;28;20214;-65
2023/02/11 07:56:55;;;;;;;42.60;33.80;;;;;;;-3.05;100.00;98710.13;5008130;28;20634;-63
2023/02/11 07:59:23;;;;;;;47.43;34.10;;;;;;;-2.97;100.00;98709.84;5050197;28;20230;-65
2023/02/11 08:01:51;;;;;;;41.47;32.53;;;;;;;-2.87;100.00;98705.94;5027113;28;20690;-63
2023/02/11 08:04:18;;;;;;;43.60;34.57;;;;;;;-2.90;100.00;98708.69;5037228;28;20204;-64
2023/02/11 08:06:46;;;;;;;39.73;32.50;;;;;;;-2.85;100.00;98701.53;5044203;28;20188;-62
2023/02/11 08:09:16;;;;;;;40.53;32.63;;;;;;;-2.76;100.00;98708.13;5045302;28;20198;-65
2023/02/11 08:11:44;;;;;;;41.43;33.73;;;;;;;-2.73;100.00;98707.13;5004032;28;20231;-62
2023/02/11 08:14:12;;;;;;;40.60;32.23;;;;;;;-2.68;100.00;98716.44;5049259;28;20200;-65
2023/02/11 08:16:40;;;;;;;38.40;32.27;;;;;;;-2.41;100.00;98716.19;5045150;28;20255;-61
2023/02/11 08:19:10;;;;;;;39.43;33.50;;;;;;;-2.22;100.00;98728.41;5032085;28;20758;-63
2023/02/11 08:21:38;;;;;;;40.60;33.20;;;;;;;-2.13;100.00;98721.97;5045935;28;20441;-62
2023/02/11 08:24:06;;;;;;;43.43;33.43;;;;;;;-1.88;100.00;98726.94;5046762;28;20201;-66
2023/02/11 08:26:36;;;;;;;40.93;32.50;;;;;;;-1.81;100.00;98727.53;5049705;28;20206;-64
2023/02/11 08:29:08;;;;;;;41.93;31.40;;;;;;;-1.72;100.00;98718.44;5011747;28;20315;-63
2023/02/11 08:31:37;;;;;;;41.07;32.83;;;;;;;-1.56;100.00;98719.47;5051468;28;20230;-65
2023/02/11 08:34:05;;;;;;;37.73;31.67;;;;;;;-1.42;100.00;98715.38;5046871;28;20892;-65
2023/02/11 08:36:35;;;;;;;40.93;32.63;;;;;;;-1.27;100.00;98709.50;5029185;28;20222;-63
2023/02/11 08:39:04;;;;;;;38.77;31.60;;;;;;;-1.42;100.00;98712.78;5046339;28;20879;-66
2023/02/11 08:41:48;;;;;;;36.43;32.07;;;;;;;-1.50;100.00;98715.75;5048972;28;20219;-62
2023/02/11 08:44:18;;;;;;;38.07;31.03;;;;;;;-1.58;100.00;98723.88;5005256;28;20241;-65
2023/02/11 08:46:45;;;;;;;35.57;30.77;;;;;;;-1.62;100.00;98724.94;5047903;28;20214;-63
2023/02/11 08:49:13;;;;;;;41.40;32.77;;;;;;;-1.73;100.00;98733.22;5045610;28;22629;-64
2023/02/11 08:51:41;;;;;;;41.50;31.83;;;;;;;-1.58;100.00;98716.09;5037161;28;20621;-62
2023/02/11 08:54:09;;;;;;;34.57;29.40;;;;;;;-1.58;100.00;98713.50;5046874;28;20217;-63
2023/02/11 08:56:37;;;;;;;36.53;29.90;;;;;;;-1.70;100.00;98729.66;5066786;28;20320;-63
2023/02/11 08:59:07;;;;;;;35.73;30.60;;;;;;;-1.49;100.00;98725.25;5020181;28;20930;-64
2023/02/11 09:01:35;;;;;;;37.90;31.07;;;;;;;-1.52;100.00;98725.34;5066925;28;20301;-65
2023/02/11 09:04:03;;;;;;;40.30;31.07;;;;;;;-1.51;100.00;98720.09;5064708;28;20390;-64
2023/02/11 09:06:31;;;;;;;39.57;31.87;;;;;;;-1.38;100.00;98725.59;5057403;28;20218;-63
2023/02/11 09:08:59;;;;;;;39.10;30.60;;;;;;;-1.20;100.00;98712.63;5060924;28;21293;-65
2023/02/11 09:11:28;;;;;;;37.93;30.00;;;;;;;-1.27;100.00;98709.50;5072978;28;20222;-65
2023/02/11 09:13:56;;;;;;;37.70;30.63;;;;;;;-1.39;100.00;98713.50;5067168;28;20682;-65
2023/02/11 09:16:27;;;;;;;37.77;30.17;;;;;;;-1.47;100.00;98711.25;5023172;28;20389;-65
2023/02/11 09:18:57;;;;;;;35.57;30.10;;;;;;;-1.42;100.00;98718.84;5067511;28;20202;-62
2023/02/11 09:21:25;;;;;;;37.67;31.73;;;;;;;-1.38;100.00;98722.13;5051192;28;20225;-65
2023/02/11 09:23:52;;;;;;;44.63;32.20;;;;;;;-1.53;100.00;98715.88;5063405;28;20428;-61
2023/02/11 09:26:22;;;;;;;38.77;30.90;;;;;;;-1.43;100.00;98714.56;5069122;28;20202;-65
2023/02/11 09:28:50;;;;;;;41.50;30.43;;;;;;;-1.38;100.00;98715.19;5066775;28;20198;-62
2023/02/11 09:31:20;;;;;;;39.70;29.90;;;;;;;-1.34;100.00;98718.47;5023251;28;20248;-65
2023/02/11 09:33:52;;;;;;;36.53;29.60;;;;;;;-1.19;100.00;98709.09;5068482;28;20586;-60
2023/02/11 09:36:22;;;;;;;34.60;29.90;;;;;;;-0.99;100.00;98707.34;5050812;28;20977;-64
2023/02/11 09:38:50;;;;;;;38.93;30.07;;;;;;;-1.12;100.00;98702.72;5064184;28;20597;-62
2023/02/11 09:41:30;;;;;;;35.97;29.23;;;;;;;-1.14;100.00;98701.94;5066725;28;20250;-66
2023/02/11 09:43:59;;;;;;;35.53;28.53;;;;;;;-1.11;100.00;98704.41;5063023;28;20206;-63
2023/02/11 09:46:30;;;;;;;33.43;28.77;;;;;;;-1.19;100.00;98709.09;5027524;28;20604;-65
2023/02/11 09:49:00;;;;;;;37.20;29.30;;;;;;;-1.22;100.00;98717.06;5063136;28;20205;-65
2023/02/11 09:51:34;;;;;;;35.93;29.23;;;;;;;-1.17;100.00;98718.53;5064853;28;20939;-65
2023/02/11 09:54:05;;;;;;;36.17;30.80;;;;;;;-1.00;100.00;98714.28;5048550;28;20488;-64
2023/02/11 09:56:33;;;;;;;43.07;31.50;;;;;;;-1.03;100.00;98711.81;5069899;28;20221;-65
2023/02/11 09:59:00;;;;;;;38.20;29.93;;;;;;;-0.86;100.00;98713.63;5058794;28;20439;-66
2023/02/11 10:01:33;;;;;;;39.97;30.13;;;;;;;-0.72;100.00;98715.56;5069834;28;20254;-65
2023/02/11 10:04:04;;;;;;;33.87;29.10;;;;;;;-0.68;100.00;98711.06;5019181;28;20290;-65
2023/02/11 10:06:42;;;;;;;36.17;30.03;;;;;;;-0.66;100.00;98702.25;5068640;28;20210;-65
2023/02/11 10:09:44;;;;;;;34.13;27.70;;;;;;;-0.89;100.00;98701.63;5049532;28;20902;-66
2023/02/11 10:12:31;;;;;;;34.27;28.63;;;;;;;-0.98;100.00;98691.63;5045550;28;20260;-65
2023/02/11 10:15:15;;;;;;;31.60;28.20;;;;;;;-0.98;100.00;98702.03;5060195;28;20426;-65
2023/02/11 10:17:55;;;;;;;36.53;29.63;;;;;;;-0.85;100.00;98702.28;5023549;28;20222;-63
2023/02/11 10:20:31;;;;;;;40.67;31.90;;;;;;;-0.94;100.00;98711.41;5070703;28;20217;-64
2023/02/11 10:23:00;;;;;;;37.63;31.13;;;;;;;-1.04;100.00;98703.19;5044001;28;20733;-64
2023/02/11 10:25:34;;;;;;;37.63;31.73;;;;;;;-1.17;100.00;98696.88;5066362;28;20484;-64
2023/02/11 10:28:10;;;;;;;38.27;30.63;;;;;;;-1.03;100.00;98702.28;5066825;28;20431;-65
2023/02/11 10:30:42;;;;;;;39.03;31.37;;;;;;;-0.99;100.00;98699.53;5063423;28;20204;-63
2023/02/11 10:33:15;;;;;;;34.27;30.53;;;;;;;-0.98;100.00;98691.63;5019938;28;20225;-65
2023/02/11 10:35:44;;;;;;;36.63;31.03;;;;;;;-0.98;100.00;98685.59;5067765;28;20203;-63
2023/02/11 10:38:12;;;;;;;40.50;31.93;;;;;;;-1.01;100.00;98689.19;5048927;28;20214;-63
2023/02/11 10:40:40;;;;;;;38.40;31.73;;;;;;;-0.76;100.00;98686.25;5065740;28;20202;-63
2023/02/11 10:43:11;;;;;;;34.30;29.67;;;;;;;-0.64;100.00;98692.59;5061411;28;20794;-63
2023/02/11 10:45:42;;;;;;;40.13;32.47;;;;;;;-0.64;100.00;98687.38;5062574;28;20694;-62
2023/02/11 10:48:38;;;;;;;37.93;31.13;;;;;;;-0.49;100.00;98680.56;5019782;28;20450;-66
2023/02/11 10:51:17;;;;;;;35.70;29.33;;;;;;;-0.28;100.00;98680.41;5064176;28;20228;-63
2023/02/11 10:53:46;;;;;;;33.97;29.13;;;;;;;-0.37;100.00;98673.09;5050999;28;20213;-62
2023/02/11 10:56:21;;;;;;;35.70;30.73;;;;;;;-0.39;100.00;98672.28;5061188;28;20444;-65
2023/02/11 10:58:55;;;;;;;34.97;30.63;;;;;;;-0.42;100.00;98670.69;5052914;28;20674;-62
2023/02/11 11:01:24;;;;;;;35.90;31.63;;;;;;;-0.51;100.00;98668.56;5057497;28;20301;-63
2023/02/11 11:03:52;;;;;;;38.70;31.80;;;;;;;-0.51;100.00;98671.16;5013833;28;20203;-62
2023/02/11 11:06:30;;;;;;;35.93;31.57;;;;;;;-0.46;100.00;98683.03;5057103;28;20199;-63
2023/02/11 11:08:58;;;;;;;38.63;29.77;;;;;;;-0.49;100.00;98692.75;5043887;28;20198;-63
2023/02/11 11:11:26;;;;;;;36.57;30.37;;;;;;;-0.59;100.00;98676.75;5056229;28;20556;-65
2023/02/11 11:13:56;;;;;;;32.93;29.23;;;;;;;-0.51;100.00;98687.63;5055187;28;20210;-63
2023/02/11 11:16:26;;;;;;;37.73;32.97;;;;;;;-0.63;100.00;98690.84;5049266;28;20202;-65
2023/02/11 11:19:15;;;;;;;37.73;29.80;;;;;;;-0.54;100.00;98689.56;5011884;28;20225;-63
2023/02/11 11:21:46;;;;;;;34.33;29.70;;;;;;;-0.46;100.00;98684.81;5045771;28;20239;-63
2023/02/11 11:24:18;;;;;;;39.70;31.77;;;;;;;-0.34;100.00;98681.56;5037326;28;20283;-63
2023/02/11 11:26:47;;;;;;;37.67;31.47;;;;;;;-0.17;100.00;98675.50;5060369;28;20191;-61